Roches Point, Ireland

9:45 PM IST on October 25, 2014 (GMT +0100)
Cobh - Riverside | Change Station
CLOSE
Current Station
Personal Weather Station
Location: Cork, CORK
Elevation: 69 ft
Nearby Weather Stations

Elev 69 ft 51.86 °N, 8.32 °W | Updated 24 minutes ago

Mostly Cloudy
Mostly Cloudy
53.6 °F
Feels Like 53.6 °F
N
0.7
Wind Variable Wind from NW
Gusts 1.6 mph

Today
High -- | Low -- °F
--% Chance of Precip.
Yesterday
High -- | Low -- °F
Precip. -- in
8:14 AM 6:18 PM
Waxing Crescent, 4% visible
Pressure 29.98 in
Visibility 6.2 miles
Clouds Few 1400 ft
Mostly Cloudy 2400 ft
Dew Point 44 °F
Humidity 71%
Rainfall 0.00 in
Snow Depth Not available.
UV 0 out of 12
Pollen Not available.
Air Quality Not available.
Flu Activity Not available.
METAR EICK 252030Z 23017G27KT 9999 FEW014 BKN024 11/09 Q1015 NOSIG

More Conditions Fewer Conditions

Pressure 29.98 in
Visibility 6.2 miles
Clouds Few 1400 ft
Mostly Cloudy 2400 ft
Dew Point 44 °F
Humidity 71%
Rainfall 0.00 in
Snow Depth Not available.
UV 0 out of 12
Pollen Not available.
Air Quality Not available.
Flu Activity Not available.
METAR EICK 252030Z 23017G27KT 9999 FEW014 BKN024 11/09 Q1015 NOSIG

More Conditions Fewer Conditions

10-Day Weather Forecast

Almanac

Astronomy

Oct. 25, 2014 Rise Set
Actual Time 8:14 AM IST 6:18 PM IST
Civil Twilight 7:39 AM IST 6:53 PM IST
Nautical Twilight 7:00 AM IST 7:32 PM IST
Astronomical Twilight 6:21 AM IST 8:11 PM IST
Moon 9:48 AM IST 7:21 PM IST
Length of Visible Light 11h 13m
Length of Day
10h 04m
Tomorrow will be 3m 46s shorter.
Waxing Crescent, 4% of the Moon is Illuminated
Today
Waxing Crescent
Oct 30
First Quarter
Nov 6
Full
Nov 14
Last Quarter
Nov 22
New

Today's Extremes

Country Highs Country Lows

Community

WunderPhotos

Upload Photos

1,764,989 photos uploaded!

Nearby

Snow Depth

Not available.

Earthquake Activity

City Distance Mag. Time & Date
No recent earthquake activity has been reported nearby.
Minimum magnitude displayed is 2.5.

Coastal Water Temperatures

Place Temperature
No Stations Reporting

Nearby Weather Stations